sensor_id;sensor_type;location;lat;lon;timestamp;pressure;altitude;pressure_sealevel;temperature;humidity
55656;BME280;41530;52.382;5.270;2024-02-21T00:00:12;102348.84;;;15.79;55.07
55656;BME280;41530;52.382;5.270;2024-02-21T00:02:39;102335.56;;;15.79;54.83
55656;BME280;41530;52.382;5.270;2024-02-21T00:05:06;102335.66;;;15.77;54.92
55656;BME280;41530;52.382;5.270;2024-02-21T00:07:33;102337.47;;;15.77;55.16
55656;BME280;41530;52.382;5.270;2024-02-21T00:09:59;102333.13;;;15.76;55.04
55656;BME280;41530;52.382;5.270;2024-02-21T00:12:27;102324.31;;;15.75;55.22
55656;BME280;41530;52.382;5.270;2024-02-21T00:14:53;102328.75;;;15.75;55.07
55656;BME280;41530;52.382;5.270;2024-02-21T00:17:20;102321.75;;;15.74;55.17
55656;BME280;41530;52.382;5.270;2024-02-21T00:19:47;102319.09;;;15.74;55.04
55656;BME280;41530;52.382;5.270;2024-02-21T00:22:13;102327.06;;;15.74;55.13
55656;BME280;41530;52.382;5.270;2024-02-21T00:24:40;102337.78;;;15.72;55.15
55656;BME280;41530;52.382;5.270;2024-02-21T00:27:07;102314.03;;;15.71;55.22
55656;BME280;41530;52.382;5.270;2024-02-21T00:29:33;102302.56;;;15.70;55.35
55656;BME280;41530;52.382;5.270;2024-02-21T00:32:03;102302.44;;;15.72;55.07
55656;BME280;41530;52.382;5.270;2024-02-21T00:34:30;102291.94;;;15.70;55.22
55656;BME280;41530;52.382;5.270;2024-02-21T00:36:57;102290.25;;;15.69;55.22
55656;BME280;41530;52.382;5.270;2024-02-21T00:39:24;102294.69;;;15.68;55.15
55656;BME280;41530;52.382;5.270;2024-02-21T00:41:50;102293.00;;;15.67;55.17
55656;BME280;41530;52.382;5.270;2024-02-21T00:44:17;102287.78;;;15.66;55.11
55656;BME280;41530;52.382;5.270;2024-02-21T00:46:44;102284.19;;;15.67;55.18
55656;BME280;41530;52.382;5.270;2024-02-21T00:49:10;102292.25;;;15.65;55.05
55656;BME280;41530;52.382;5.270;2024-02-21T00:51:37;102279.94;;;15.64;54.85
55656;BME280;41530;52.382;5.270;2024-02-21T00:54:04;102283.44;;;15.65;55.29
55656;BME280;41530;52.382;5.270;2024-02-21T00:56:30;102282.59;;;15.64;55.13
55656;BME280;41530;52.382;5.270;2024-02-21T00:58:57;102289.78;;;15.62;55.13
55656;BME280;41530;52.382;5.270;2024-02-21T01:01:25;102301.25;;;15.63;55.07
55656;BME280;41530;52.382;5.270;2024-02-21T01:03:52;102299.47;;;15.63;55.26
55656;BME280;41530;52.382;5.270;2024-02-21T01:06:21;102298.59;;;15.63;55.22
55656;BME280;41530;52.382;5.270;2024-02-21T01:08:48;102299.66;;;15.60;55.19
55656;BME280;41530;52.382;5.270;2024-02-21T01:11:16;102293.50;;;15.60;55.11
55656;BME280;41530;52.382;5.270;2024-02-21T01:13:43;102293.59;;;15.58;55.19
55656;BME280;41530;52.382;5.270;2024-02-21T01:16:10;102279.63;;;15.56;55.13
55656;BME280;41530;52.382;5.270;2024-02-21T01:18:37;102279.53;;;15.58;55.13
55656;BME280;41530;52.382;5.270;2024-02-21T01:21:06;102282.19;;;15.58;55.38
55656;BME280;41530;52.382;5.270;2024-02-21T01:23:36;102274.31;;;15.56;55.23
55656;BME280;41530;52.382;5.270;2024-02-21T01:26:03;102273.38;;;15.57;55.31
55656;BME280;41530;52.382;5.270;2024-02-21T01:28:30;102269.00;;;15.56;55.26
55656;BME280;41530;52.382;5.270;2024-02-21T01:30:57;102260.28;;;15.54;55.20
55656;BME280;41530;52.382;5.270;2024-02-21T01:33:24;102270.81;;;15.56;55.26
55656;BME280;41530;52.382;5.270;2024-02-21T01:35:50;102252.41;;;15.53;55.09
55656;BME280;41530;52.382;5.270;2024-02-21T01:38:17;102255.91;;;15.53;55.18
55656;BME280;41530;52.382;5.270;2024-02-21T01:40:44;102252.31;;;15.54;55.20
55656;BME280;41530;52.382;5.270;2024-02-21T01:43:18;102235.53;;;15.54;55.07
55656;BME280;41530;52.382;5.270;2024-02-21T01:45:52;102237.34;;;15.53;55.23
55656;BME280;41530;52.382;5.270;2024-02-21T01:48:20;102237.34;;;15.53;55.28
55656;BME280;41530;52.382;5.270;2024-02-21T01:50:52;102232.03;;;15.53;55.29
55656;BME280;41530;52.382;5.270;2024-02-21T01:53:29;102225.03;;;15.52;55.05
55656;BME280;41530;52.382;5.270;2024-02-21T01:55:56;102216.34;;;15.50;55.17
55656;BME280;41530;52.382;5.270;2024-02-21T01:58:23;102213.69;;;15.50;55.17
55656;BME280;41530;52.382;5.270;2024-02-21T02:00:50;102224.41;;;15.49;55.32
55656;BME280;41530;52.382;5.270;2024-02-21T02:03:17;102228.75;;;15.50;55.01
55656;BME280;41530;52.382;5.270;2024-02-21T02:05:46;102231.41;;;15.50;55.16
55656;BME280;41530;52.382;5.270;2024-02-21T02:08:14;102231.50;;;15.48;55.30
55656;BME280;41530;52.382;5.270;2024-02-21T02:10:41;102232.44;;;15.47;55.30
55656;BME280;41530;52.382;5.270;2024-02-21T02:13:08;102220.13;;;15.46;55.19
55656;BME280;41530;52.382;5.270;2024-02-21T02:15:53;102221.94;;;15.46;55.18
55656;BME280;41530;52.382;5.270;2024-02-21T02:18:20;102228.19;;;15.45;55.40
55656;BME280;41530;52.382;5.270;2024-02-21T02:20:47;102223.75;;;15.45;55.13
55656;BME280;41530;52.382;5.270;2024-02-21T02:23:25;102219.44;;;15.44;55.31
55656;BME280;41530;52.382;5.270;2024-02-21T02:25:52;102229.06;;;15.45;55.32
55656;BME280;41530;52.382;5.270;2024-02-21T02:28:19;102227.38;;;15.44;55.46
55656;BME280;41530;52.382;5.270;2024-02-21T02:30:46;102223.13;;;15.42;55.48
55656;BME280;41530;52.382;5.270;2024-02-21T02:33:13;102224.72;;;15.44;55.37
55656;BME280;41530;52.382;5.270;2024-02-21T02:35:40;102215.78;;;15.45;55.59
55656;BME280;41530;52.382;5.270;2024-02-21T02:38:07;102207.97;;;15.44;55.35
55656;BME280;41530;52.382;5.270;2024-02-21T02:40:34;102205.31;;;15.44;55.34
55656;BME280;41530;52.382;5.270;2024-02-21T02:43:01;102207.84;;;15.45;55.67
55656;BME280;41530;52.382;5.270;2024-02-21T02:45:28;102199.88;;;15.45;55.48
55656;BME280;41530;52.382;5.270;2024-02-21T02:47:55;102191.91;;;15.45;55.57
55656;BME280;41530;52.382;5.270;2024-02-21T02:50:24;102186.63;;;15.45;55.64
55656;BME280;41530;52.382;5.270;2024-02-21T02:52:51;102187.59;;;15.44;55.55
55656;BME280;41530;52.382;5.270;2024-02-21T02:55:18;102180.47;;;15.45;55.63
55656;BME280;41530;52.382;5.270;2024-02-21T02:57:45;102188.41;;;15.45;55.75
55656;BME280;41530;52.382;5.270;2024-02-21T03:00:12;102178.91;;;15.42;55.60
55656;BME280;41530;52.382;5.270;2024-02-21T03:02:41;102175.28;;;15.43;55.77
55656;BME280;41530;52.382;5.270;2024-02-21T03:05:15;102186.75;;;15.44;55.49
55656;BME280;41530;52.382;5.270;2024-02-21T03:07:43;102178.03;;;15.42;55.47
55656;BME280;41530;52.382;5.270;2024-02-21T03:10:11;102179.66;;;15.44;55.79
55656;BME280;41530;52.382;5.270;2024-02-21T03:12:38;102173.50;;;15.44;55.67
55656;BME280;41530;52.382;5.270;2024-02-21T03:15:05;102177.00;;;15.44;55.70
55656;BME280;41530;52.382;5.270;2024-02-21T03:17:32;102167.34;;;15.43;55.57
55656;BME280;41530;52.382;5.270;2024-02-21T03:20:04;102168.19;;;15.44;55.65
55656;BME280;41530;52.382;5.270;2024-02-21T03:22:32;102153.22;;;15.43;55.65
55656;BME280;41530;52.382;5.270;2024-02-21T03:24:59;102141.88;;;15.41;55.57
55656;BME280;41530;52.382;5.270;2024-02-21T03:27:26;102141.03;;;15.40;55.65
55656;BME280;41530;52.382;5.270;2024-02-21T03:29:53;102133.81;;;15.42;55.76
55656;BME280;41530;52.382;5.270;2024-02-21T03:32:19;102136.56;;;15.41;55.58
55656;BME280;41530;52.382;5.270;2024-02-21T03:34:46;102139.97;;;15.43;55.80
55656;BME280;41530;52.382;5.270;2024-02-21T03:37:13;102131.16;;;15.42;55.90
55656;BME280;41530;52.382;5.270;2024-02-21T03:39:41;102113.56;;;15.41;55.78
55656;BME280;41530;52.382;5.270;2024-02-21T03:42:07;102111.75;;;15.42;55.70
55656;BME280;41530;52.382;5.270;2024-02-21T03:44:34;102107.28;;;15.42;55.68
55656;BME280;41530;52.382;5.270;2024-02-21T03:47:01;102107.28;;;15.42;55.83
55656;BME280;41530;52.382;5.270;2024-02-21T03:49:27;102114.31;;;15.43;55.75
55656;BME280;41530;52.382;5.270;2024-02-21T03:51:55;102114.31;;;15.43;55.94
55656;BME280;41530;52.382;5.270;2024-02-21T03:54:22;102108.25;;;15.41;55.93
55656;BME280;41530;52.382;5.270;2024-02-21T03:56:49;102099.44;;;15.41;55.88
55656;BME280;41530;52.382;5.270;2024-02-21T03:59:16;102094.03;;;15.42;55.74
55656;BME280;41530;52.382;5.270;2024-02-21T04:01:42;102082.69;;;15.40;55.97
55656;BME280;41530;52.382;5.270;2024-02-21T04:04:12;102088.84;;;15.41;55.70
55656;BME280;41530;52.382;5.270;2024-02-21T04:06:49;102078.53;;;15.36;55.64
55656;BME280;41530;52.382;5.270;2024-02-21T04:09:15;102092.22;;;15.43;55.79
55656;BME280;41530;52.382;5.270;2024-02-21T04:11:42;102078.13;;;15.42;55.75
55656;BME280;41530;52.382;5.270;2024-02-21T04:14:09;102077.28;;;15.42;55.81
55656;BME280;41530;52.382;5.270;2024-02-21T04:16:38;102071.22;;;15.40;55.64
55656;BME280;41530;52.382;5.270;2024-02-21T04:19:06;102083.53;;;15.41;55.96
55656;BME280;41530;52.382;5.270;2024-02-21T04:21:33;102082.69;;;15.40;55.70
55656;BME280;41530;52.382;5.270;2024-02-21T04:23:59;102080.97;;;15.39;55.84
55656;BME280;41530;52.382;5.270;2024-02-21T04:26:26;102080.97;;;15.39;55.80
55656;BME280;41530;52.382;5.270;2024-02-21T04:28:53;102082.69;;;15.40;55.57
55656;BME280;41530;52.382;5.270;2024-02-21T04:31:19;102084.38;;;15.41;55.82
55656;BME280;41530;52.382;5.270;2024-02-21T04:33:46;102084.50;;;15.40;55.66
55656;BME280;41530;52.382;5.270;2024-02-21T04:36:13;102083.53;;;15.41;55.83
55656;BME280;41530;52.382;5.270;2024-02-21T04:38:39;102077.38;;;15.40;55.96
55656;BME280;41530;52.382;5.270;2024-02-21T04:41:07;102075.69;;;15.39;55.70
55656;BME280;41530;52.382;5.270;2024-02-21T04:43:34;102068.56;;;15.40;55.87
55656;BME280;41530;52.382;5.270;2024-02-21T04:46:01;102066.03;;;15.38;55.63
55656;BME280;41530;52.382;5.270;2024-02-21T04:48:28;102060.53;;;15.41;56.01
55656;BME280;41530;52.382;5.270;2024-02-21T04:50:54;102058.81;;;15.40;55.94
55656;BME280;41530;52.382;5.270;2024-02-21T04:53:21;102060.63;;;15.40;55.51
55656;BME280;41530;52.382;5.270;2024-02-21T04:55:48;102060.63;;;15.40;56.00
55656;BME280;41530;52.382;5.270;2024-02-21T04:58:15;102057.00;;;15.41;55.72
55656;BME280;41530;52.382;5.270;2024-02-21T05:00:41;102050.00;;;15.40;55.77
55656;BME280;41530;52.382;5.270;2024-02-21T05:03:08;102050.88;;;15.40;55.74
55656;BME280;41530;52.382;5.270;2024-02-21T05:05:35;102054.47;;;15.39;55.91
55656;BME280;41530;52.382;5.270;2024-02-21T05:08:02;102042.91;;;15.40;55.84
55656;BME280;41530;52.382;5.270;2024-02-21T05:10:29;102039.50;;;15.38;55.98
55656;BME280;41530;52.382;5.270;2024-02-21T05:12:56;102041.22;;;15.39;55.96
55656;BME280;41530;52.382;5.270;2024-02-21T05:15:23;102034.22;;;15.38;55.67
55656;BME280;41530;52.382;5.270;2024-02-21T05:17:50;102039.50;;;15.38;55.70
55656;BME280;41530;52.382;5.270;2024-02-21T05:20:17;102027.09;;;15.39;55.84
55656;BME280;41530;52.382;5.270;2024-02-21T05:22:44;102021.91;;;15.37;55.81
55656;BME280;41530;52.382;5.270;2024-02-21T05:25:10;102021.91;;;15.37;56.07
55656;BME280;41530;52.382;5.270;2024-02-21T05:27:37;102012.25;;;15.36;55.46
55656;BME280;41530;52.382;5.270;2024-02-21T05:30:05;102011.41;;;15.36;55.60
55656;BME280;41530;52.382;5.270;2024-02-21T05:32:33;102008.84;;;15.34;55.81
55656;BME280;41530;52.382;5.270;2024-02-21T05:35:00;101998.16;;;15.36;55.93
55656;BME280;41530;52.382;5.270;2024-02-21T05:37:27;101997.19;;;15.37;55.87
55656;BME280;41530;52.382;5.270;2024-02-21T05:39:53;102000.69;;;15.37;55.86
55656;BME280;41530;52.382;5.270;2024-02-21T05:42:20;101990.09;;;15.37;55.80
55656;BME280;41530;52.382;5.270;2024-02-21T05:44:47;101991.88;;;15.37;55.81
55656;BME280;41530;52.382;5.270;2024-02-21T05:47:13;101969.72;;;15.38;55.75
55656;BME280;41530;52.382;5.270;2024-02-21T05:49:42;101961.88;;;15.36;55.73
55656;BME280;41530;52.382;5.270;2024-02-21T05:52:09;101948.84;;;15.33;56.12
55656;BME280;41530;52.382;5.270;2024-02-21T05:54:38;101953.91;;;15.36;57.60
55656;BME280;41530;52.382;5.270;2024-02-21T05:57:07;101955.19;;;15.43;57.81
55656;BME280;41530;52.382;5.270;2024-02-21T05:59:34;101955.28;;;15.42;57.59
55656;BME280;41530;52.382;5.270;2024-02-21T06:02:03;101940.97;;;15.44;57.24
55656;BME280;41530;52.382;5.270;2024-02-21T06:04:30;101946.13;;;15.46;57.53
55656;BME280;41530;52.382;5.270;2024-02-21T06:06:57;101953.03;;;15.48;57.36
55656;BME280;41530;52.382;5.270;2024-02-21T06:09:24;101931.66;;;15.39;57.33
55656;BME280;41530;52.382;5.270;2024-02-21T06:11:51;101928.16;;;15.38;57.40
55656;BME280;41530;52.382;5.270;2024-02-21T06:14:19;101940.00;;;15.45;57.22
55656;BME280;41530;52.382;5.270;2024-02-21T06:16:46;101942.41;;;15.48;57.27
55656;BME280;41530;52.382;5.270;2024-02-21T06:19:12;101944.13;;;15.49;57.31
55656;BME280;41530;52.382;5.270;2024-02-21T06:21:39;101941.56;;;15.48;57.23
55656;BME280;41530;52.382;5.270;2024-02-21T06:24:06;101928.66;;;15.43;57.31
55656;BME280;41530;52.382;5.270;2024-02-21T06:26:33;101943.78;;;15.54;57.09
55656;BME280;41530;52.382;5.270;2024-02-21T06:28:59;101949.88;;;15.56;57.38
55656;BME280;41530;52.382;5.270;2024-02-21T06:31:27;101927.56;;;15.46;57.20
55656;BME280;41530;52.382;5.270;2024-02-21T06:33:54;101942.22;;;15.51;57.36
55656;BME280;41530;52.382;5.270;2024-02-21T06:36:21;101955.06;;;15.57;57.04
55656;BME280;41530;52.382;5.270;2024-02-21T06:38:48;101943.91;;;15.52;57.07
55656;BME280;41530;52.382;5.270;2024-02-21T06:41:16;101933.50;;;15.49;56.96
55656;BME280;41530;52.382;5.270;2024-02-21T06:43:43;101941.06;;;15.55;57.01
55656;BME280;41530;52.382;5.270;2024-02-21T06:46:09;101929.06;;;15.50;57.03
55656;BME280;41530;52.382;5.270;2024-02-21T06:48:36;101926.41;;;15.50;56.79
55656;BME280;41530;52.382;5.270;2024-02-21T06:51:03;101947.72;;;15.61;56.84
55656;BME280;41530;52.382;5.270;2024-02-21T06:53:30;101928.72;;;15.54;56.76
55656;BME280;41530;52.382;5.270;2024-02-21T06:55:57;101933.09;;;15.55;56.80
55656;BME280;41530;52.382;5.270;2024-02-21T06:58:24;101937.22;;;15.59;56.79
55656;BME280;41530;52.382;5.270;2024-02-21T07:00:51;101926.19;;;15.53;56.87
55656;BME280;41530;52.382;5.270;2024-02-21T07:03:18;101916.34;;;15.55;56.85
55656;BME280;41530;52.382;5.270;2024-02-21T07:05:44;101923.25;;;15.57;57.08
55656;BME280;41530;52.382;5.270;2024-02-21T07:08:11;101926.38;;;15.62;57.05
55656;BME280;41530;52.382;5.270;2024-02-21T07:10:38;101911.78;;;15.57;56.89
55656;BME280;41530;52.382;5.270;2024-02-21T07:13:05;101917.09;;;15.57;56.76
55656;BME280;41530;52.382;5.270;2024-02-21T07:15:31;101909.97;;;15.57;57.02
55656;BME280;41530;52.382;5.270;2024-02-21T07:17:59;101916.72;;;15.61;56.77
55656;BME280;41530;52.382;5.270;2024-02-21T07:20:26;101903.94;;;15.55;56.57
55656;BME280;41530;52.382;5.270;2024-02-21T07:22:53;101917.78;;;15.59;56.67
55656;BME280;41530;52.382;5.270;2024-02-21T07:25:19;101914.69;;;15.65;56.69
55656;BME280;41530;52.382;5.270;2024-02-21T07:27:46;101897.56;;;15.58;56.62
55656;BME280;41530;52.382;5.270;2024-02-21T07:30:13;101904.09;;;15.65;56.48
55656;BME280;41530;52.382;5.270;2024-02-21T07:32:43;101892.25;;;15.58;56.68
55656;BME280;41530;52.382;5.270;2024-02-21T07:35:10;101896.88;;;15.67;56.74
55656;BME280;41530;52.382;5.270;2024-02-21T07:37:38;101885.84;;;15.60;56.58
55656;BME280;41530;52.382;5.270;2024-02-21T07:40:15;101886.25;;;15.67;56.64
55656;BME280;41530;52.382;5.270;2024-02-21T07:42:43;101885.31;;;15.68;56.58
55656;BME280;41530;52.382;5.270;2024-02-21T07:45:17;101873.84;;;15.67;56.58
55656;BME280;41530;52.382;5.270;2024-02-21T07:47:45;101856.44;;;15.63;56.61
55656;BME280;41530;52.382;5.270;2024-02-21T07:50:12;101870.34;;;15.67;56.38
55656;BME280;41530;52.382;5.270;2024-02-21T07:52:39;101862.50;;;15.65;56.69
55656;BME280;41530;52.382;5.270;2024-02-21T07:55:06;101843.53;;;15.59;56.72
55656;BME280;41530;52.382;5.270;2024-02-21T07:57:32;101851.66;;;15.68;56.49
55656;BME280;41530;52.382;5.270;2024-02-21T07:59:59;101861.53;;;15.66;56.58
55656;BME280;41530;52.382;5.270;2024-02-21T08:02:26;101851.47;;;15.59;56.38
55656;BME280;41530;52.382;5.270;2024-02-21T08:04:53;101863.34;;;15.66;55.94
55656;BME280;41530;52.382;5.270;2024-02-21T08:07:19;101857.53;;;15.61;55.28
55656;BME280;41530;52.382;5.270;2024-02-21T08:09:46;101852.31;;;15.59;55.20
55656;BME280;41530;52.382;5.270;2024-02-21T08:12:12;101859.31;;;15.60;55.21
55656;BME280;41530;52.382;5.270;2024-02-21T08:14:39;101844.09;;;15.51;55.19
55656;BME280;41530;52.382;5.270;2024-02-21T08:17:06;101839.44;;;15.55;55.70
55656;BME280;41530;52.382;5.270;2024-02-21T08:19:33;101842.56;;;15.60;55.21
55656;BME280;41530;52.382;5.270;2024-02-21T08:22:00;101838.22;;;15.59;55.17
55656;BME280;41530;52.382;5.270;2024-02-21T08:24:26;101844.38;;;15.59;55.66
55656;BME280;41530;52.382;5.270;2024-02-21T08:26:53;101840.88;;;15.59;55.58
55656;BME280;41530;52.382;5.270;2024-02-21T08:29:20;101825.94;;;15.58;55.13
55656;BME280;41530;52.382;5.270;2024-02-21T08:31:46;101826.06;;;15.56;55.14
55656;BME280;41530;52.382;5.270;2024-02-21T08:34:13;101822.44;;;15.57;55.38
55656;BME280;41530;52.382;5.270;2024-02-21T08:36:40;101822.31;;;15.59;55.44
55656;BME280;41530;52.382;5.270;2024-02-21T08:39:07;101817.16;;;15.57;55.21
55656;BME280;41530;52.382;5.270;2024-02-21T08:41:36;101809.88;;;15.59;55.69
55656;BME280;41530;52.382;5.270;2024-02-21T08:44:27;101809.78;;;15.61;56.05
55656;BME280;41530;52.382;5.270;2024-02-21T08:46:54;101795.66;;;15.60;56.56
55656;BME280;41530;52.382;5.270;2024-02-21T08:49:21;101799.16;;;15.61;56.38
55656;BME280;41530;52.382;5.270;2024-02-21T08:51:48;101801.94;;;15.59;56.57
55656;BME280;41530;52.382;5.270;2024-02-21T08:54:15;101798.94;;;15.64;56.62
55656;BME280;41530;52.382;5.270;2024-02-21T08:56:41;101799.69;;;15.66;56.70
55656;BME280;41530;52.382;5.270;2024-02-21T08:59:08;101800.53;;;15.66;57.12
55656;BME280;41530;52.382;5.270;2024-02-21T09:01:35;101796.91;;;15.67;57.51
55656;BME280;41530;52.382;5.270;2024-02-21T09:04:02;101807.16;;;15.72;57.70
55656;BME280;41530;52.382;5.270;2024-02-21T09:06:29;101797.28;;;15.74;57.63
55656;BME280;41530;52.382;5.270;2024-02-21T09:08:57;101795.34;;;15.76;57.46
55656;BME280;41530;52.382;5.270;2024-02-21T09:11:24;101786.44;;;15.77;57.00
55656;BME280;41530;52.382;5.270;2024-02-21T09:13:51;101779.56;;;15.75;57.07
55656;BME280;41530;52.382;5.270;2024-02-21T09:16:18;101778.47;;;15.77;57.03
55656;BME280;41530;52.382;5.270;2024-02-21T09:18:45;101767.75;;;15.79;56.99
55656;BME280;41530;52.382;5.270;2024-02-21T09:21:13;101756.28;;;15.78;56.96
55656;BME280;41530;52.382;5.270;2024-02-21T09:23:39;101755.34;;;15.79;56.88
55656;BME280;41530;52.382;5.270;2024-02-21T09:26:06;101752.44;;;15.82;57.09
55656;BME280;41530;52.382;5.270;2024-02-21T09:28:33;101743.66;;;15.82;57.06
55656;BME280;41530;52.382;5.270;2024-02-21T09:31:01;101743.66;;;15.82;57.01
55656;BME280;41530;52.382;5.270;2024-02-21T09:33:28;101739.91;;;15.84;56.90
55656;BME280;41530;52.382;5.270;2024-02-21T09:36:00;101732.78;;;15.85;56.56
55656;BME280;41530;52.382;5.270;2024-02-21T09:38:27;101728.31;;;15.85;56.81
55656;BME280;41530;52.382;5.270;2024-02-21T09:41:21;101728.19;;;15.87;56.85
55656;BME280;41530;52.382;5.270;2024-02-21T09:43:52;101721.06;;;15.87;56.88
55656;BME280;41530;52.382;5.270;2024-02-21T09:46:24;101714.81;;;15.88;57.04
55656;BME280;41530;52.382;5.270;2024-02-21T09:51:49;101689.13;;;15.89;56.94
55656;BME280;41530;52.382;5.270;2024-02-21T09:54:18;101683.56;;;15.92;56.93
55656;BME280;41530;52.382;5.270;2024-02-21T09:56:47;101676.59;;;15.91;56.93
55656;BME280;41530;52.382;5.270;2024-02-21T09:59:17;101671.03;;;15.94;56.81
55656;BME280;41530;52.382;5.270;2024-02-21T10:01:43;101669.97;;;15.96;56.95
55656;BME280;41530;52.382;5.270;2024-02-21T10:04:14;101669.00;;;15.97;56.91
55656;BME280;41530;52.382;5.270;2024-02-21T10:06:41;101659.19;;;15.98;56.88
55656;BME280;41530;52.382;5.270;2024-02-21T10:09:08;101659.06;;;15.99;56.96
55656;BME280;41530;52.382;5.270;2024-02-21T10:11:35;101655.56;;;15.99;56.89
55656;BME280;41530;52.382;5.270;2024-02-21T10:14:04;101643.88;;;16.01;56.96
55656;BME280;41530;52.382;5.270;2024-02-21T10:16:32;101645.56;;;16.02;56.98
55656;BME280;41530;52.382;5.270;2024-02-21T10:19:00;101643.88;;;16.01;56.86
55656;BME280;41530;52.382;5.270;2024-02-21T10:21:27;101630.38;;;16.04;56.99
55656;BME280;41530;52.382;5.270;2024-02-21T10:23:53;101632.06;;;16.06;56.91
55656;BME280;41530;52.382;5.270;2024-02-21T10:26:20;101622.28;;;16.06;57.32
55656;BME280;41530;52.382;5.270;2024-02-21T10:28:47;101616.84;;;16.08;57.20
55656;BME280;41530;52.382;5.270;2024-02-21T10:31:27;101611.44;;;16.09;57.03
55656;BME280;41530;52.382;5.270;2024-02-21T10:33:55;101605.16;;;16.10;57.13
55656;BME280;41530;52.382;5.270;2024-02-21T10:36:23;101597.88;;;16.12;57.02
55656;BME280;41530;52.382;5.270;2024-02-21T10:38:51;101593.56;;;16.11;56.98
55656;BME280;41530;52.382;5.270;2024-02-21T10:41:20;101604.75;;;16.15;56.96
55656;BME280;41530;52.382;5.270;2024-02-21T10:43:52;101596.56;;;16.18;57.13
55656;BME280;41530;52.382;5.270;2024-02-21T10:46:23;101589.44;;;16.18;57.20
55656;BME280;41530;52.382;5.270;2024-02-21T10:49:07;101578.81;;;16.18;57.21
55656;BME280;41530;52.382;5.270;2024-02-21T10:51:42;101570.75;;;16.20;57.41
55656;BME280;41530;52.382;5.270;2024-02-21T10:57:02;101561.69;;;16.22;57.20
55656;BME280;41530;52.382;5.270;2024-02-21T10:59:30;101547.56;;;16.22;57.10
55656;BME280;41530;52.382;5.270;2024-02-21T11:01:58;101536.81;;;16.23;57.19
55656;BME280;41530;52.382;5.270;2024-02-21T11:04:26;101516.44;;;16.24;57.15
55656;BME280;41530;52.382;5.270;2024-02-21T11:06:58;101508.31;;;16.25;57.24
55656;BME280;41530;52.382;5.270;2024-02-21T11:09:31;101495.75;;;16.27;57.03
55656;BME280;41530;52.382;5.270;2024-02-21T11:12:03;101504.69;;;16.26;57.16
55656;BME280;41530;52.382;5.270;2024-02-21T11:14:31;101533.78;;;16.28;57.46
55656;BME280;41530;52.382;5.270;2024-02-21T11:17:19;101540.16;;;16.25;57.29
55656;BME280;41530;52.382;5.270;2024-02-21T11:19:47;101555.84;;;16.28;57.42
55656;BME280;41530;52.382;5.270;2024-02-21T11:22:19;101553.91;;;16.30;57.43
55656;BME280;41530;52.382;5.270;2024-02-21T11:24:46;101548.59;;;16.30;57.39
55656;BME280;41530;52.382;5.270;2024-02-21T11:27:15;101535.34;;;16.30;57.55
55656;BME280;41530;52.382;5.270;2024-02-21T11:29:46;101530.88;;;16.31;57.46
55656;BME280;41530;52.382;5.270;2024-02-21T11:32:17;101519.53;;;16.29;57.65
55656;BME280;41530;52.382;5.270;2024-02-21T11:37:30;101511.44;;;16.30;57.42
55656;BME280;41530;52.382;5.270;2024-02-21T11:39:59;101496.47;;;16.29;57.46
55656;BME280;41530;52.382;5.270;2024-02-21T11:42:27;101484.03;;;16.30;57.20
55656;BME280;41530;52.382;5.270;2024-02-21T11:44:56;101479.09;;;16.25;57.18
55656;BME280;41530;52.382;5.270;2024-02-21T11:47:24;101469.31;;;16.26;57.09
55656;BME280;41530;52.382;5.270;2024-02-21T11:49:51;101469.31;;;16.26;57.21
55656;BME280;41530;52.382;5.270;2024-02-21T11:52:25;101470.88;;;16.28;57.01
55656;BME280;41530;52.382;5.270;2024-02-21T11:54:53;101460.28;;;16.28;57.20
55656;BME280;41530;52.382;5.270;2024-02-21T11:57:23;101438.19;;;16.28;57.21
55656;BME280;41530;52.382;5.270;2024-02-21T11:59:51;101446.28;;;16.26;57.14
55656;BME280;41530;52.382;5.270;2024-02-21T12:02:26;101425.03;;;16.26;56.96
55656;BME280;41530;52.382;5.270;2024-02-21T12:04:52;101399.19;;;16.28;57.19
55656;BME280;41530;52.382;5.270;2024-02-21T12:07:21;101384.84;;;16.31;57.13
55656;BME280;41530;52.382;5.270;2024-02-21T12:09:51;101377.59;;;16.33;56.89
55656;BME280;41530;52.382;5.270;2024-02-21T12:12:19;101358.88;;;16.34;57.29
55656;BME280;41530;52.382;5.270;2024-02-21T12:14:46;101343.78;;;16.35;56.74
55656;BME280;41530;52.382;5.270;2024-02-21T12:17:20;101348.00;;;16.37;56.79
55656;BME280;41530;52.382;5.270;2024-02-21T12:19:47;101340.03;;;16.37;56.76
55656;BME280;41530;52.382;5.270;2024-02-21T12:22:18;101342.41;;;16.40;56.62
55656;BME280;41530;52.382;5.270;2024-02-21T12:24:46;101327.44;;;16.39;56.82
55656;BME280;41530;52.382;5.270;2024-02-21T12:27:14;101327.31;;;16.41;56.84
55656;BME280;41530;52.382;5.270;2024-02-21T12:29:41;101329.84;;;16.43;56.76
55656;BME280;41530;52.382;5.270;2024-02-21T12:32:08;101310.13;;;16.45;56.66
55656;BME280;41530;52.382;5.270;2024-02-21T12:34:35;101311.81;;;16.46;56.59
55656;BME280;41530;52.382;5.270;2024-02-21T12:37:18;101295.88;;;16.46;56.59
55656;BME280;41530;52.382;5.270;2024-02-21T12:39:47;101291.41;;;16.47;56.47
55656;BME280;41530;52.382;5.270;2024-02-21T12:42:14;101288.63;;;16.48;56.69
55656;BME280;41530;52.382;5.270;2024-02-21T12:44:40;101283.31;;;16.48;56.61
55656;BME280;41530;52.382;5.270;2024-02-21T12:47:09;101284.28;;;16.47;56.49
55656;BME280;41530;52.382;5.270;2024-02-21T12:49:38;101267.38;;;16.48;56.71
55656;BME280;41530;52.382;5.270;2024-02-21T12:52:10;101248.66;;;16.50;56.75
55656;BME280;41530;52.382;5.270;2024-02-21T12:54:38;101242.50;;;16.49;56.53
55656;BME280;41530;52.382;5.270;2024-02-21T12:57:04;101241.53;;;16.50;56.84
55656;BME280;41530;52.382;5.270;2024-02-21T12:59:31;101237.34;;;16.48;56.75
55656;BME280;41530;52.382;5.270;2024-02-21T13:01:58;101231.06;;;16.49;56.67